sensor_id;sensor_type;location;lat;lon;timestamp;temperature;humidity
20504;DHT22;10410;51.046;6.980;2023-04-25T00:05:59;6.20;99.90
20504;DHT22;10410;51.046;6.980;2023-04-25T00:13:03;6.10;99.90
20504;DHT22;10410;51.046;6.980;2023-04-25T00:20:04;6.00;99.90
20504;DHT22;10410;51.046;6.980;2023-04-25T00:27:05;5.90;99.90
20504;DHT22;10410;51.046;6.980;2023-04-25T00:34:06;5.80;99.90
20504;DHT22;10410;51.046;6.980;2023-04-25T00:41:08;5.70;99.90
20504;DHT22;10410;51.046;6.980;2023-04-25T00:48:08;5.60;99.90
20504;DHT22;10410;51.046;6.980;2023-04-25T00:55:10;5.50;99.90
20504;DHT22;10410;51.046;6.980;2023-04-25T01:02:10;5.50;99.90
20504;DHT22;10410;51.046;6.980;2023-04-25T01:09:11;5.60;99.90
20504;DHT22;10410;51.046;6.980;2023-04-25T01:16:12;5.70;99.90
20504;DHT22;10410;51.046;6.980;2023-04-25T01:23:13;5.80;99.90
20504;DHT22;10410;51.046;6.980;2023-04-25T01:30:14;6.00;99.90
20504;DHT22;10410;51.046;6.980;2023-04-25T01:37:14;6.10;99.90
20504;DHT22;10410;51.046;6.980;2023-04-25T01:44:17;6.20;99.90
20504;DHT22;10410;51.046;6.980;2023-04-25T01:51:18;6.30;99.90
20504;DHT22;10410;51.046;6.980;2023-04-25T01:58:19;6.30;99.90
20504;DHT22;10410;51.046;6.980;2023-04-25T02:05:40;6.30;99.90
20504;DHT22;10410;51.046;6.980;2023-04-25T02:12:44;6.30;99.90
20504;DHT22;10410;51.046;6.980;2023-04-25T02:19:57;6.20;99.90
20504;DHT22;10410;51.046;6.980;2023-04-25T02:26:57;6.20;99.90
20504;DHT22;10410;51.046;6.980;2023-04-25T02:33:57;6.20;99.90
20504;DHT22;10410;51.046;6.980;2023-04-25T02:40:58;6.30;99.90
20504;DHT22;10410;51.046;6.980;2023-04-25T02:47:58;6.30;99.90
20504;DHT22;10410;51.046;6.980;2023-04-25T02:54:59;6.30;99.90
20504;DHT22;10410;51.046;6.980;2023-04-25T03:02:04;6.30;99.90
20504;DHT22;10410;51.046;6.980;2023-04-25T03:09:05;6.30;99.90
20504;DHT22;10410;51.046;6.980;2023-04-25T03:16:05;6.30;99.90
20504;DHT22;10410;51.046;6.980;2023-04-25T03:23:05;6.30;99.90
20504;DHT22;10410;51.046;6.980;2023-04-25T03:30:07;6.30;99.90
20504;DHT22;10410;51.046;6.980;2023-04-25T03:37:09;6.40;99.90
20504;DHT22;10410;51.046;6.980;2023-04-25T03:44:11;6.30;99.90
20504;DHT22;10410;51.046;6.980;2023-04-25T03:51:12;6.30;99.90
20504;DHT22;10410;51.046;6.980;2023-04-25T03:58:16;6.30;99.90
20504;DHT22;10410;51.046;6.980;2023-04-25T04:05:16;6.40;99.90
20504;DHT22;10410;51.046;6.980;2023-04-25T04:12:24;6.40;99.90
20504;DHT22;10410;51.046;6.980;2023-04-25T04:19:25;6.40;99.90
20504;DHT22;10410;51.046;6.980;2023-04-25T04:26:48;6.40;99.90
20504;DHT22;10410;51.046;6.980;2023-04-25T04:34:08;6.40;99.90
20504;DHT22;10410;51.046;6.980;2023-04-25T04:41:09;6.40;99.90
20504;DHT22;10410;51.046;6.980;2023-04-25T04:48:27;6.50;99.90
20504;DHT22;10410;51.046;6.980;2023-04-25T04:55:34;6.50;99.90
20504;DHT22;10410;51.046;6.980;2023-04-25T05:02:54;6.50;99.90
20504;DHT22;10410;51.046;6.980;2023-04-25T05:10:12;6.60;99.90
20504;DHT22;10410;51.046;6.980;2023-04-25T05:17:18;6.50;99.90
20504;DHT22;10410;51.046;6.980;2023-04-25T05:24:38;6.50;99.90
20504;DHT22;10410;51.046;6.980;2023-04-25T05:32:03;6.50;99.90
20504;DHT22;10410;51.046;6.980;2023-04-25T05:39:03;6.50;99.90
20504;DHT22;10410;51.046;6.980;2023-04-25T05:46:23;6.50;99.90
20504;DHT22;10410;51.046;6.980;2023-04-25T05:53:53;6.60;99.90
20504;DHT22;10410;51.046;6.980;2023-04-25T06:00:54;6.60;99.90
20504;DHT22;10410;51.046;6.980;2023-04-25T06:07:55;6.70;99.90
20504;DHT22;10410;51.046;6.980;2023-04-25T06:14:56;6.90;99.90
20504;DHT22;10410;51.046;6.980;2023-04-25T06:21:57;6.90;99.90
20504;DHT22;10410;51.046;6.980;2023-04-25T06:28:57;7.10;99.90
20504;DHT22;10410;51.046;6.980;2023-04-25T06:35:58;7.20;99.90
20504;DHT22;10410;51.046;6.980;2023-04-25T06:43:00;7.30;99.90
20504;DHT22;10410;51.046;6.980;2023-04-25T06:50:15;7.50;99.90
20504;DHT22;10410;51.046;6.980;2023-04-25T06:57:16;7.60;99.90
20504;DHT22;10410;51.046;6.980;2023-04-25T07:04:16;7.70;99.90
20504;DHT22;10410;51.046;6.980;2023-04-25T07:11:22;7.80;99.90
20504;DHT22;10410;51.046;6.980;2023-04-25T07:18:23;7.90;99.90
20504;DHT22;10410;51.046;6.980;2023-04-25T07:25:24;7.80;99.90
20504;DHT22;10410;51.046;6.980;2023-04-25T07:32:26;7.90;99.90
20504;DHT22;10410;51.046;6.980;2023-04-25T07:39:27;7.90;99.90
20504;DHT22;10410;51.046;6.980;2023-04-25T07:46:29;7.90;99.90
20504;DHT22;10410;51.046;6.980;2023-04-25T07:53:29;8.10;99.90
20504;DHT22;10410;51.046;6.980;2023-04-25T08:00:36;8.30;99.90
20504;DHT22;10410;51.046;6.980;2023-04-25T08:07:57;8.60;99.90
20504;DHT22;10410;51.046;6.980;2023-04-25T08:14:57;8.70;99.90
20504;DHT22;10410;51.046;6.980;2023-04-25T08:22:03;8.70;99.90
20504;DHT22;10410;51.046;6.980;2023-04-25T08:29:15;8.60;99.90
20504;DHT22;10410;51.046;6.980;2023-04-25T08:36:16;8.50;99.90
20504;DHT22;10410;51.046;6.980;2023-04-25T08:43:42;8.40;99.90
20504;DHT22;10410;51.046;6.980;2023-04-25T08:50:51;8.30;99.90
20504;DHT22;10410;51.046;6.980;2023-04-25T08:57:54;8.30;99.90
20504;DHT22;10410;51.046;6.980;2023-04-25T09:04:55;8.40;99.90
20504;DHT22;10410;51.046;6.980;2023-04-25T09:11:57;8.40;99.90
20504;DHT22;10410;51.046;6.980;2023-04-25T09:18:59;8.50;99.90
20504;DHT22;10410;51.046;6.980;2023-04-25T09:26:00;8.80;99.90
20504;DHT22;10410;51.046;6.980;2023-04-25T09:33:09;8.90;99.90
20504;DHT22;10410;51.046;6.980;2023-04-25T09:40:12;8.90;99.90
20504;DHT22;10410;51.046;6.980;2023-04-25T09:47:25;9.00;99.90
20504;DHT22;10410;51.046;6.980;2023-04-25T09:54:27;9.50;99.90
20504;DHT22;10410;51.046;6.980;2023-04-25T10:01:49;9.70;99.90
20504;DHT22;10410;51.046;6.980;2023-04-25T10:08:59;9.60;99.90
20504;DHT22;10410;51.046;6.980;2023-04-25T10:16:03;9.70;99.90
20504;DHT22;10410;51.046;6.980;2023-04-25T10:23:11;9.80;99.90
20504;DHT22;10410;51.046;6.980;2023-04-25T10:30:15;9.90;99.90
20504;DHT22;10410;51.046;6.980;2023-04-25T10:37:18;10.00;99.90
20504;DHT22;10410;51.046;6.980;2023-04-25T10:44:19;9.90;99.90
20504;DHT22;10410;51.046;6.980;2023-04-25T10:51:26;9.60;99.90
20504;DHT22;10410;51.046;6.980;2023-04-25T10:58:28;9.40;99.90
20504;DHT22;10410;51.046;6.980;2023-04-25T11:05:30;9.50;99.90
20504;DHT22;10410;51.046;6.980;2023-04-25T11:12:33;9.70;99.90
20504;DHT22;10410;51.046;6.980;2023-04-25T11:19:34;9.90;99.90
20504;DHT22;10410;51.046;6.980;2023-04-25T11:26:35;10.30;99.90
20504;DHT22;10410;51.046;6.980;2023-04-25T11:33:37;10.50;99.90
20504;DHT22;10410;51.046;6.980;2023-04-25T11:40:38;10.80;99.90
20504;DHT22;10410;51.046;6.980;2023-04-25T11:47:38;10.80;99.90
20504;DHT22;10410;51.046;6.980;2023-04-25T11:54:38;10.60;99.90
20504;DHT22;10410;51.046;6.980;2023-04-25T12:01:40;10.80;99.90
20504;DHT22;10410;51.046;6.980;2023-04-25T12:09:08;11.10;99.90
20504;DHT22;10410;51.046;6.980;2023-04-25T12:16:08;11.20;99.90
20504;DHT22;10410;51.046;6.980;2023-04-25T12:23:09;11.40;99.90
20504;DHT22;10410;51.046;6.980;2023-04-25T12:30:10;11.50;99.90
20504;DHT22;10410;51.046;6.980;2023-04-25T12:37:11;11.30;99.90
20504;DHT22;10410;51.046;6.980;2023-04-25T12:44:12;11.00;99.90
20504;DHT22;10410;51.046;6.980;2023-04-25T12:51:12;10.70;99.90
20504;DHT22;10410;51.046;6.980;2023-04-25T12:58:17;10.40;99.90
20504;DHT22;10410;51.046;6.980;2023-04-25T13:05:18;10.20;99.90
20504;DHT22;10410;51.046;6.980;2023-04-25T13:12:19;10.10;99.90
20504;DHT22;10410;51.046;6.980;2023-04-25T13:19:20;10.30;99.90
20504;DHT22;10410;51.046;6.980;2023-04-25T13:26:20;10.60;99.90
20504;DHT22;10410;51.046;6.980;2023-04-25T13:33:21;11.10;99.90
20504;DHT22;10410;51.046;6.980;2023-04-25T13:40:21;11.70;99.90
20504;DHT22;10410;51.046;6.980;2023-04-25T13:47:25;12.30;99.90
20504;DHT22;10410;51.046;6.980;2023-04-25T13:54:26;12.90;99.90
20504;DHT22;10410;51.046;6.980;2023-04-25T14:01:26;13.20;99.90
20504;DHT22;10410;51.046;6.980;2023-04-25T14:08:28;13.00;99.90
20504;DHT22;10410;51.046;6.980;2023-04-25T14:15:30;12.40;99.90
20504;DHT22;10410;51.046;6.980;2023-04-25T14:22:31;11.90;99.90
20504;DHT22;10410;51.046;6.980;2023-04-25T14:29:31;12.00;99.90
20504;DHT22;10410;51.046;6.980;2023-04-25T14:36:32;12.40;99.90
20504;DHT22;10410;51.046;6.980;2023-04-25T14:43:33;12.40;98.00
20504;DHT22;10410;51.046;6.980;2023-04-25T14:50:33;11.90;98.30
20504;DHT22;10410;51.046;6.980;2023-04-25T14:57:34;12.20;99.60
20504;DHT22;10410;51.046;6.980;2023-04-25T15:04:34;12.90;99.10
20504;DHT22;10410;51.046;6.980;2023-04-25T15:11:35;13.30;98.60
20504;DHT22;10410;51.046;6.980;2023-04-25T15:18:35;13.50;97.80
20504;DHT22;10410;51.046;6.980;2023-04-25T15:25:36;13.40;97.70
20504;DHT22;10410;51.046;6.980;2023-04-25T15:32:37;13.20;98.40
20504;DHT22;10410;51.046;6.980;2023-04-25T15:39:37;12.80;99.40
20504;DHT22;10410;51.046;6.980;2023-04-25T15:46:38;12.30;99.20
20504;DHT22;10410;51.046;6.980;2023-04-25T15:53:38;12.10;99.90
20504;DHT22;10410;51.046;6.980;2023-04-25T16:00:39;12.00;99.40
20504;DHT22;10410;51.046;6.980;2023-04-25T16:07:42;11.70;99.60
20504;DHT22;10410;51.046;6.980;2023-04-25T16:14:42;11.30;99.90
20504;DHT22;10410;51.046;6.980;2023-04-25T16:21:43;11.60;99.90
20504;DHT22;10410;51.046;6.980;2023-04-25T16:28:43;12.00;99.90
20504;DHT22;10410;51.046;6.980;2023-04-25T16:35:43;11.90;99.00
20504;DHT22;10410;51.046;6.980;2023-04-25T16:42:44;11.60;99.80
20504;DHT22;10410;51.046;6.980;2023-04-25T16:49:45;11.60;99.90
20504;DHT22;10410;51.046;6.980;2023-04-25T16:56:45;11.80;99.80
20504;DHT22;10410;51.046;6.980;2023-04-25T17:03:47;12.00;99.00
20504;DHT22;10410;51.046;6.980;2023-04-25T17:10:48;12.30;99.70
20504;DHT22;10410;51.046;6.980;2023-04-25T17:17:49;12.50;97.40
20504;DHT22;10410;51.046;6.980;2023-04-25T17:24:50;12.40;96.80
20504;DHT22;10410;51.046;6.980;2023-04-25T17:31:50;12.10;98.00
20504;DHT22;10410;51.046;6.980;2023-04-25T17:38:52;12.00;98.60
20504;DHT22;10410;51.046;6.980;2023-04-25T17:45:53;11.90;98.50
20504;DHT22;10410;51.046;6.980;2023-04-25T17:52:53;11.90;98.60
20504;DHT22;10410;51.046;6.980;2023-04-25T17:59:53;11.80;98.20
20504;DHT22;10410;51.046;6.980;2023-04-25T18:06:56;11.50;96.90
20504;DHT22;10410;51.046;6.980;2023-04-25T18:13:56;11.20;97.60
20504;DHT22;10410;51.046;6.980;2023-04-25T18:20:56;10.80;96.20
20504;DHT22;10410;51.046;6.980;2023-04-25T18:27:57;10.30;97.60
20504;DHT22;10410;51.046;6.980;2023-04-25T18:34:59;10.10;98.70
20504;DHT22;10410;51.046;6.980;2023-04-25T18:41:59;10.00;99.30
20504;DHT22;10410;51.046;6.980;2023-04-25T18:49:05;9.90;99.80
20504;DHT22;10410;51.046;6.980;2023-04-25T18:56:06;9.70;99.90
20504;DHT22;10410;51.046;6.980;2023-04-25T19:03:07;9.50;99.90
20504;DHT22;10410;51.046;6.980;2023-04-25T19:10:08;9.30;99.90
20504;DHT22;10410;51.046;6.980;2023-04-25T19:17:08;9.10;99.90
20504;DHT22;10410;51.046;6.980;2023-04-25T19:24:09;8.90;99.90
20504;DHT22;10410;51.046;6.980;2023-04-25T19:31:10;8.70;99.90
20504;DHT22;10410;51.046;6.980;2023-04-25T19:38:12;8.50;99.90
20504;DHT22;10410;51.046;6.980;2023-04-25T19:45:14;8.40;99.90
20504;DHT22;10410;51.046;6.980;2023-04-25T19:52:14;8.30;99.90
20504;DHT22;10410;51.046;6.980;2023-04-25T19:59:16;8.10;99.90
20504;DHT22;10410;51.046;6.980;2023-04-25T20:06:16;8.00;99.90
20504;DHT22;10410;51.046;6.980;2023-04-25T20:13:17;7.90;99.90
20504;DHT22;10410;51.046;6.980;2023-04-25T20:20:18;7.80;99.90
20504;DHT22;10410;51.046;6.980;2023-04-25T20:27:20;7.70;99.90
20504;DHT22;10410;51.046;6.980;2023-04-25T20:34:21;7.50;99.90
20504;DHT22;10410;51.046;6.980;2023-04-25T20:41:21;7.30;99.90
20504;DHT22;10410;51.046;6.980;2023-04-25T20:48:21;7.20;99.90
20504;DHT22;10410;51.046;6.980;2023-04-25T20:55:22;7.10;99.90
20504;DHT22;10410;51.046;6.980;2023-04-25T21:02:22;7.00;99.90
20504;DHT22;10410;51.046;6.980;2023-04-25T21:09:23;6.90;99.90
20504;DHT22;10410;51.046;6.980;2023-04-25T21:16:24;6.70;99.90
20504;DHT22;10410;51.046;6.980;2023-04-25T21:23:24;6.60;99.90
20504;DHT22;10410;51.046;6.980;2023-04-25T21:30:25;6.50;99.90
20504;DHT22;10410;51.046;6.980;2023-04-25T21:37:25;6.40;99.90
20504;DHT22;10410;51.046;6.980;2023-04-25T21:44:26;6.30;99.90
20504;DHT22;10410;51.046;6.980;2023-04-25T21:51:29;6.20;99.90
20504;DHT22;10410;51.046;6.980;2023-04-25T21:58:31;6.10;99.90
20504;DHT22;10410;51.046;6.980;2023-04-25T22:05:38;5.90;99.90
20504;DHT22;10410;51.046;6.980;2023-04-25T22:12:40;5.80;99.90
20504;DHT22;10410;51.046;6.980;2023-04-25T22:19:40;5.70;99.90
20504;DHT22;10410;51.046;6.980;2023-04-25T22:26:42;5.50;99.90
20504;DHT22;10410;51.046;6.980;2023-04-25T22:33:42;5.40;99.90
20504;DHT22;10410;51.046;6.980;2023-04-25T22:40:46;5.20;99.90
20504;DHT22;10410;51.046;6.980;2023-04-25T22:47:47;5.10;99.90
20504;DHT22;10410;51.046;6.980;2023-04-25T22:54:47;5.00;99.90
20504;DHT22;10410;51.046;6.980;2023-04-25T23:01:48;4.80;99.90
20504;DHT22;10410;51.046;6.980;2023-04-25T23:08:49;4.70;99.90
20504;DHT22;10410;51.046;6.980;2023-04-25T23:15:50;4.60;99.90
20504;DHT22;10410;51.046;6.980;2023-04-25T23:22:51;4.50;99.90
20504;DHT22;10410;51.046;6.980;2023-04-25T23:29:52;4.50;99.90
20504;DHT22;10410;51.046;6.980;2023-04-25T23:36:55;4.30;99.90
20504;DHT22;10410;51.046;6.980;2023-04-25T23:43:56;4.10;99.90
20504;DHT22;10410;51.046;6.980;2023-04-25T23:50:57;4.00;99.90
20504;DHT22;10410;51.046;6.980;2023-04-25T23:57:59;3.90;99.90
